<?xml version="1.0" encoding="UTF-8" standalone="no" ?>
<gpx xmlns="http://www.topografix.com/GPX/1/1" xmlns:xsi="http://www.w3.org/2001/XMLSchema-instance" xsi:schemaLocation="http://www.topografix.com/GPX/1/1 http://www.topografix.com/GPX/1/1/gpx.xsd" version="1.1" creator="VisuGPX - https://www.visugpx.com">
  <metadata>
    <name>La Charvaz depuis Maison Maliga</name>
    <desc><![CDATA[Départ de St Pierre de Curtille, ascension jusqu\'a Ontex puis vers le sommet de la Charvaz. 
Descente par l\'autre versant, ATTENTION descente à éviter en cas de pluie. 
Un très beau point de vue sur le lac du Bourget et la vallée du Rhône. 

Randonnée difficile et longue. ]]></desc>
  </metadata>
  <wpt lat="45.73182" lon="5.82376">
    <ele>1150.9</ele>
    <name><![CDATA[Photographe]]></name>
    <desc><![CDATA[]]></desc>
  </wpt>
  <trk>
    <name><![CDATA[La Charvaz-17193557]]></name>
    <trkseg>
      <trkpt lat="45.77699" lon="5.81478">
        <ele>386</ele>
        <time>2026-07-14T09:55:07Z</time>
      </trkpt>
      <trkpt lat="45.77604" lon="5.81456">
        <ele>387</ele>
        <time>2026-07-14T09:56:24Z</time>
      </trkpt>
      <trkpt lat="45.77561" lon="5.81515">
        <ele>387</ele>
        <time>2026-07-14T09:57:12Z</time>
      </trkpt>
      <trkpt lat="45.77529" lon="5.81552">
        <ele>390</ele>
        <time>2026-07-14T09:57:45Z</time>
      </trkpt>
      <trkpt lat="45.77523" lon="5.81561">
        <ele>391</ele>
        <time>2026-07-14T09:57:52Z</time>
      </trkpt>
      <trkpt lat="45.77445" lon="5.81507">
        <ele>389</ele>
        <time>2026-07-14T09:59:01Z</time>
      </trkpt>
      <trkpt lat="45.77432" lon="5.8149">
        <ele>388</ele>
        <time>2026-07-14T09:59:15Z</time>
      </trkpt>
      <trkpt lat="45.77422" lon="5.81501">
        <ele>389</ele>
        <time>2026-07-14T09:59:25Z</time>
      </trkpt>
      <trkpt lat="45.77406" lon="5.8155">
        <ele>392</ele>
        <time>2026-07-14T09:59:55Z</time>
      </trkpt>
      <trkpt lat="45.77401" lon="5.81557">
        <ele>393</ele>
        <time>2026-07-14T10:00:01Z</time>
      </trkpt>
      <trkpt lat="45.77391" lon="5.81564">
        <ele>394</ele>
        <time>2026-07-14T10:00:10Z</time>
      </trkpt>
      <trkpt lat="45.77384" lon="5.81564">
        <ele>394</ele>
        <time>2026-07-14T10:00:15Z</time>
      </trkpt>
      <trkpt lat="45.77334" lon="5.81554">
        <ele>394</ele>
        <time>2026-07-14T10:00:56Z</time>
      </trkpt>
      <trkpt lat="45.77315" lon="5.81552">
        <ele>394</ele>
        <time>2026-07-14T10:01:11Z</time>
      </trkpt>
      <trkpt lat="45.77292" lon="5.81553">
        <ele>395</ele>
        <time>2026-07-14T10:01:30Z</time>
      </trkpt>
      <trkpt lat="45.77253" lon="5.81564">
        <ele>397</ele>
        <time>2026-07-14T10:02:01Z</time>
      </trkpt>
      <trkpt lat="45.7719" lon="5.81564">
        <ele>398</ele>
        <time>2026-07-14T10:02:52Z</time>
      </trkpt>
      <trkpt lat="45.77181" lon="5.81564">
        <ele>398</ele>
        <time>2026-07-14T10:02:59Z</time>
      </trkpt>
      <trkpt lat="45.77186" lon="5.81581">
        <ele>400</ele>
        <time>2026-07-14T10:03:09Z</time>
      </trkpt>
      <trkpt lat="45.77186" lon="5.81603">
        <ele>402</ele>
        <time>2026-07-14T10:03:22Z</time>
      </trkpt>
      <trkpt lat="45.77181" lon="5.8162">
        <ele>404</ele>
        <time>2026-07-14T10:03:32Z</time>
      </trkpt>
      <trkpt lat="45.7717" lon="5.81644">
        <ele>407</ele>
        <time>2026-07-14T10:03:48Z</time>
      </trkpt>
      <trkpt lat="45.77155" lon="5.8167">
        <ele>410</ele>
        <time>2026-07-14T10:04:07Z</time>
      </trkpt>
      <trkpt lat="45.77152" lon="5.81685">
        <ele>414</ele>
        <time>2026-07-14T10:04:15Z</time>
      </trkpt>
      <trkpt lat="45.77169" lon="5.81727">
        <ele>420</ele>
        <time>2026-07-14T10:04:43Z</time>
      </trkpt>
      <trkpt lat="45.7718" lon="5.81735">
        <ele>421</ele>
        <time>2026-07-14T10:04:52Z</time>
      </trkpt>
      <trkpt lat="45.77198" lon="5.81723">
        <ele>419</ele>
        <time>2026-07-14T10:05:08Z</time>
      </trkpt>
      <trkpt lat="45.77238" lon="5.81727">
        <ele>419</ele>
        <time>2026-07-14T10:05:40Z</time>
      </trkpt>
      <trkpt lat="45.77254" lon="5.81731">
        <ele>420</ele>
        <time>2026-07-14T10:05:53Z</time>
      </trkpt>
      <trkpt lat="45.77302" lon="5.8171">
        <ele>416</ele>
        <time>2026-07-14T10:06:34Z</time>
      </trkpt>
      <trkpt lat="45.77318" lon="5.81782">
        <ele>431</ele>
        <time>2026-07-14T10:07:16Z</time>
      </trkpt>
      <trkpt lat="45.77313" lon="5.81797">
        <ele>435</ele>
        <time>2026-07-14T10:07:25Z</time>
      </trkpt>
      <trkpt lat="45.77326" lon="5.81825">
        <ele>441</ele>
        <time>2026-07-14T10:07:44Z</time>
      </trkpt>
      <trkpt lat="45.77315" lon="5.81824">
        <ele>442</ele>
        <time>2026-07-14T10:07:53Z</time>
      </trkpt>
      <trkpt lat="45.77304" lon="5.81824">
        <ele>443</ele>
        <time>2026-07-14T10:08:02Z</time>
      </trkpt>
      <trkpt lat="45.77272" lon="5.81811">
        <ele>442</ele>
        <time>2026-07-14T10:08:28Z</time>
      </trkpt>
      <trkpt lat="45.77257" lon="5.81818">
        <ele>446</ele>
        <time>2026-07-14T10:08:41Z</time>
      </trkpt>
      <trkpt lat="45.77243" lon="5.81818">
        <ele>447</ele>
        <time>2026-07-14T10:08:52Z</time>
      </trkpt>
      <trkpt lat="45.77217" lon="5.8185">
        <ele>459</ele>
        <time>2026-07-14T10:09:19Z</time>
      </trkpt>
      <trkpt lat="45.77194" lon="5.8184">
        <ele>457</ele>
        <time>2026-07-14T10:09:39Z</time>
      </trkpt>
      <trkpt lat="45.77152" lon="5.81838">
        <ele>461</ele>
        <time>2026-07-14T10:10:12Z</time>
      </trkpt>
      <trkpt lat="45.77093" lon="5.81828">
        <ele>466</ele>
        <time>2026-07-14T10:11:00Z</time>
      </trkpt>
      <trkpt lat="45.7708" lon="5.81826">
        <ele>468</ele>
        <time>2026-07-14T10:11:10Z</time>
      </trkpt>
      <trkpt lat="45.77059" lon="5.81803">
        <ele>463</ele>
        <time>2026-07-14T10:11:32Z</time>
      </trkpt>
      <trkpt lat="45.77036" lon="5.81788">
        <ele>462</ele>
        <time>2026-07-14T10:11:52Z</time>
      </trkpt>
      <trkpt lat="45.7697" lon="5.81791">
        <ele>474</ele>
        <time>2026-07-14T10:12:45Z</time>
      </trkpt>
      <trkpt lat="45.76947" lon="5.81783">
        <ele>474</ele>
        <time>2026-07-14T10:13:04Z</time>
      </trkpt>
      <trkpt lat="45.76918" lon="5.81791">
        <ele>481</ele>
        <time>2026-07-14T10:13:27Z</time>
      </trkpt>
      <trkpt lat="45.76845" lon="5.81791">
        <ele>482</ele>
        <time>2026-07-14T10:14:26Z</time>
      </trkpt>
      <trkpt lat="45.76827" lon="5.81798">
        <ele>485</ele>
        <time>2026-07-14T10:14:41Z</time>
      </trkpt>
      <trkpt lat="45.76811" lon="5.81823">
        <ele>496</ele>
        <time>2026-07-14T10:15:00Z</time>
      </trkpt>
      <trkpt lat="45.76786" lon="5.81837">
        <ele>499</ele>
        <time>2026-07-14T10:15:21Z</time>
      </trkpt>
      <trkpt lat="45.76734" lon="5.81856">
        <ele>496</ele>
        <time>2026-07-14T10:16:04Z</time>
      </trkpt>
      <trkpt lat="45.76683" lon="5.81878">
        <ele>497</ele>
        <time>2026-07-14T10:16:47Z</time>
      </trkpt>
      <trkpt lat="45.76653" lon="5.81875">
        <ele>495</ele>
        <time>2026-07-14T10:17:11Z</time>
      </trkpt>
      <trkpt lat="45.76623" lon="5.81884">
        <ele>496</ele>
        <time>2026-07-14T10:17:35Z</time>
      </trkpt>
      <trkpt lat="45.76566" lon="5.81882">
        <ele>493</ele>
        <time>2026-07-14T10:18:21Z</time>
      </trkpt>
      <trkpt lat="45.76525" lon="5.81887">
        <ele>495</ele>
        <time>2026-07-14T10:18:54Z</time>
      </trkpt>
      <trkpt lat="45.76499" lon="5.81885">
        <ele>495</ele>
        <time>2026-07-14T10:19:15Z</time>
      </trkpt>
      <trkpt lat="45.76463" lon="5.81889">
        <ele>499</ele>
        <time>2026-07-14T10:19:44Z</time>
      </trkpt>
      <trkpt lat="45.76408" lon="5.81906">
        <ele>508</ele>
        <time>2026-07-14T10:20:29Z</time>
      </trkpt>
      <trkpt lat="45.76352" lon="5.81894">
        <ele>511</ele>
        <time>2026-07-14T10:21:14Z</time>
      </trkpt>
      <trkpt lat="45.76347" lon="5.81927">
        <ele>518</ele>
        <time>2026-07-14T10:21:33Z</time>
      </trkpt>
      <trkpt lat="45.76346" lon="5.81935">
        <ele>517</ele>
        <time>2026-07-14T10:21:37Z</time>
      </trkpt>
      <trkpt lat="45.76317" lon="5.81937">
        <ele>522</ele>
        <time>2026-07-14T10:22:01Z</time>
      </trkpt>
      <trkpt lat="45.76279" lon="5.81922">
        <ele>530</ele>
        <time>2026-07-14T10:22:32Z</time>
      </trkpt>
      <trkpt lat="45.76247" lon="5.81906">
        <ele>533</ele>
        <time>2026-07-14T10:22:59Z</time>
      </trkpt>
      <trkpt lat="45.76226" lon="5.81905">
        <ele>538</ele>
        <time>2026-07-14T10:23:16Z</time>
      </trkpt>
      <trkpt lat="45.76213" lon="5.8189">
        <ele>539</ele>
        <time>2026-07-14T10:23:30Z</time>
      </trkpt>
      <trkpt lat="45.76172" lon="5.81923">
        <ele>553</ele>
        <time>2026-07-14T10:24:07Z</time>
      </trkpt>
      <trkpt lat="45.76162" lon="5.8197">
        <ele>548</ele>
        <time>2026-07-14T10:24:35Z</time>
      </trkpt>
      <trkpt lat="45.76154" lon="5.81987">
        <ele>547</ele>
        <time>2026-07-14T10:24:46Z</time>
      </trkpt>
      <trkpt lat="45.76132" lon="5.81999">
        <ele>548</ele>
        <time>2026-07-14T10:25:05Z</time>
      </trkpt>
      <trkpt lat="45.76105" lon="5.82017">
        <ele>549</ele>
        <time>2026-07-14T10:25:29Z</time>
      </trkpt>
      <trkpt lat="45.76106" lon="5.82018">
        <ele>548</ele>
        <time>2026-07-14T10:25:30Z</time>
      </trkpt>
      <trkpt lat="45.76088" lon="5.8201">
        <ele>553</ele>
        <time>2026-07-14T10:25:45Z</time>
      </trkpt>
      <trkpt lat="45.7604" lon="5.82017">
        <ele>561</ele>
        <time>2026-07-14T10:26:24Z</time>
      </trkpt>
      <trkpt lat="45.76014" lon="5.82023">
        <ele>567</ele>
        <time>2026-07-14T10:26:45Z</time>
      </trkpt>
      <trkpt lat="45.76007" lon="5.82015">
        <ele>569</ele>
        <time>2026-07-14T10:26:52Z</time>
      </trkpt>
      <trkpt lat="45.7601" lon="5.82005">
        <ele>568</ele>
        <time>2026-07-14T10:26:58Z</time>
      </trkpt>
      <trkpt lat="45.76035" lon="5.81966">
        <ele>569</ele>
        <time>2026-07-14T10:27:27Z</time>
      </trkpt>
      <trkpt lat="45.7603" lon="5.81956">
        <ele>572</ele>
        <time>2026-07-14T10:27:34Z</time>
      </trkpt>
      <trkpt lat="45.7602" lon="5.81954">
        <ele>574</ele>
        <time>2026-07-14T10:27:42Z</time>
      </trkpt>
      <trkpt lat="45.76008" lon="5.81945">
        <ele>577</ele>
        <time>2026-07-14T10:27:53Z</time>
      </trkpt>
      <trkpt lat="45.75998" lon="5.81941">
        <ele>579</ele>
        <time>2026-07-14T10:28:02Z</time>
      </trkpt>
      <trkpt lat="45.75989" lon="5.81943">
        <ele>581</ele>
        <time>2026-07-14T10:28:09Z</time>
      </trkpt>
      <trkpt lat="45.75978" lon="5.81949">
        <ele>584</ele>
        <time>2026-07-14T10:28:18Z</time>
      </trkpt>
      <trkpt lat="45.75972" lon="5.81946">
        <ele>586</ele>
        <time>2026-07-14T10:28:23Z</time>
      </trkpt>
      <trkpt lat="45.7597" lon="5.8194">
        <ele>587</ele>
        <time>2026-07-14T10:28:27Z</time>
      </trkpt>
      <trkpt lat="45.75969" lon="5.81928">
        <ele>588</ele>
        <time>2026-07-14T10:28:34Z</time>
      </trkpt>
      <trkpt lat="45.75984" lon="5.81908">
        <ele>587</ele>
        <time>2026-07-14T10:28:50Z</time>
      </trkpt>
      <trkpt lat="45.7601" lon="5.81879">
        <ele>586</ele>
        <time>2026-07-14T10:29:17Z</time>
      </trkpt>
      <trkpt lat="45.76021" lon="5.81853">
        <ele>588</ele>
        <time>2026-07-14T10:29:34Z</time>
      </trkpt>
      <trkpt lat="45.76022" lon="5.81833">
        <ele>590</ele>
        <time>2026-07-14T10:29:45Z</time>
      </trkpt>
      <trkpt lat="45.75993" lon="5.81805">
        <ele>598</ele>
        <time>2026-07-14T10:30:13Z</time>
      </trkpt>
      <trkpt lat="45.75985" lon="5.81807">
        <ele>599</ele>
        <time>2026-07-14T10:30:19Z</time>
      </trkpt>
      <trkpt lat="45.75971" lon="5.81805">
        <ele>602</ele>
        <time>2026-07-14T10:30:31Z</time>
      </trkpt>
      <trkpt lat="45.75955" lon="5.81796">
        <ele>607</ele>
        <time>2026-07-14T10:30:44Z</time>
      </trkpt>
      <trkpt lat="45.75922" lon="5.81797">
        <ele>614</ele>
        <time>2026-07-14T10:31:11Z</time>
      </trkpt>
      <trkpt lat="45.75887" lon="5.81803">
        <ele>620</ele>
        <time>2026-07-14T10:31:39Z</time>
      </trkpt>
      <trkpt lat="45.75847" lon="5.81805">
        <ele>629</ele>
        <time>2026-07-14T10:32:11Z</time>
      </trkpt>
      <trkpt lat="45.7582" lon="5.81804">
        <ele>635</ele>
        <time>2026-07-14T10:32:33Z</time>
      </trkpt>
      <trkpt lat="45.75802" lon="5.81808">
        <ele>638</ele>
        <time>2026-07-14T10:32:47Z</time>
      </trkpt>
      <trkpt lat="45.75787" lon="5.81814">
        <ele>641</ele>
        <time>2026-07-14T10:33:00Z</time>
      </trkpt>
      <trkpt lat="45.75779" lon="5.81821">
        <ele>642</ele>
        <time>2026-07-14T10:33:07Z</time>
      </trkpt>
      <trkpt lat="45.75772" lon="5.81835">
        <ele>642</ele>
        <time>2026-07-14T10:33:17Z</time>
      </trkpt>
      <trkpt lat="45.75776" lon="5.81861">
        <ele>642</ele>
        <time>2026-07-14T10:33:32Z</time>
      </trkpt>
      <trkpt lat="45.75773" lon="5.8187">
        <ele>643</ele>
        <time>2026-07-14T10:33:37Z</time>
      </trkpt>
      <trkpt lat="45.75751" lon="5.81876">
        <ele>648</ele>
        <time>2026-07-14T10:33:55Z</time>
      </trkpt>
      <trkpt lat="45.75721" lon="5.81898">
        <ele>652</ele>
        <time>2026-07-14T10:34:22Z</time>
      </trkpt>
      <trkpt lat="45.75696" lon="5.81938">
        <ele>655</ele>
        <time>2026-07-14T10:34:52Z</time>
      </trkpt>
      <trkpt lat="45.75693" lon="5.81955">
        <ele>657</ele>
        <time>2026-07-14T10:35:02Z</time>
      </trkpt>
      <trkpt lat="45.75698" lon="5.8197">
        <ele>658</ele>
        <time>2026-07-14T10:35:11Z</time>
      </trkpt>
      <trkpt lat="45.75698" lon="5.81982">
        <ele>659</ele>
        <time>2026-07-14T10:35:18Z</time>
      </trkpt>
      <trkpt lat="45.75693" lon="5.81994">
        <ele>661</ele>
        <time>2026-07-14T10:35:26Z</time>
      </trkpt>
      <trkpt lat="45.7568" lon="5.82009">
        <ele>664</ele>
        <time>2026-07-14T10:35:39Z</time>
      </trkpt>
      <trkpt lat="45.75672" lon="5.82012">
        <ele>665</ele>
        <time>2026-07-14T10:35:46Z</time>
      </trkpt>
      <trkpt lat="45.7563" lon="5.82011">
        <ele>674</ele>
        <time>2026-07-14T10:36:19Z</time>
      </trkpt>
      <trkpt lat="45.75613" lon="5.82013">
        <ele>679</ele>
        <time>2026-07-14T10:36:33Z</time>
      </trkpt>
      <trkpt lat="45.75604" lon="5.82008">
        <ele>680</ele>
        <time>2026-07-14T10:36:41Z</time>
      </trkpt>
      <trkpt lat="45.75529" lon="5.82009">
        <ele>699</ele>
        <time>2026-07-14T10:37:41Z</time>
      </trkpt>
      <trkpt lat="45.75513" lon="5.81997">
        <ele>702</ele>
        <time>2026-07-14T10:37:55Z</time>
      </trkpt>
      <trkpt lat="45.755" lon="5.81984">
        <ele>706</ele>
        <time>2026-07-14T10:38:08Z</time>
      </trkpt>
      <trkpt lat="45.75486" lon="5.81961">
        <ele>708</ele>
        <time>2026-07-14T10:38:25Z</time>
      </trkpt>
      <trkpt lat="45.75479" lon="5.81942">
        <ele>709</ele>
        <time>2026-07-14T10:38:37Z</time>
      </trkpt>
      <trkpt lat="45.75476" lon="5.81925">
        <ele>710</ele>
        <time>2026-07-14T10:38:47Z</time>
      </trkpt>
      <trkpt lat="45.75472" lon="5.81916">
        <ele>711</ele>
        <time>2026-07-14T10:38:53Z</time>
      </trkpt>
      <trkpt lat="45.75416" lon="5.81981">
        <ele>721</ele>
        <time>2026-07-14T10:39:51Z</time>
      </trkpt>
      <trkpt lat="45.754" lon="5.82008">
        <ele>723</ele>
        <time>2026-07-14T10:40:10Z</time>
      </trkpt>
      <trkpt lat="45.75396" lon="5.8202">
        <ele>723</ele>
        <time>2026-07-14T10:40:18Z</time>
      </trkpt>
      <trkpt lat="45.75397" lon="5.82035">
        <ele>723</ele>
        <time>2026-07-14T10:40:26Z</time>
      </trkpt>
      <trkpt lat="45.75405" lon="5.82054">
        <ele>722</ele>
        <time>2026-07-14T10:40:39Z</time>
      </trkpt>
      <trkpt lat="45.75417" lon="5.82064">
        <ele>721</ele>
        <time>2026-07-14T10:40:50Z</time>
      </trkpt>
      <trkpt lat="45.75424" lon="5.82066">
        <ele>721</ele>
        <time>2026-07-14T10:40:55Z</time>
      </trkpt>
      <trkpt lat="45.75428" lon="5.82095">
        <ele>722</ele>
        <time>2026-07-14T10:41:12Z</time>
      </trkpt>
      <trkpt lat="45.75447" lon="5.82123">
        <ele>722</ele>
        <time>2026-07-14T10:41:34Z</time>
      </trkpt>
      <trkpt lat="45.75435" lon="5.82135">
        <ele>724</ele>
        <time>2026-07-14T10:41:45Z</time>
      </trkpt>
      <trkpt lat="45.75399" lon="5.82152">
        <ele>729</ele>
        <time>2026-07-14T10:42:16Z</time>
      </trkpt>
      <trkpt lat="45.75378" lon="5.82169">
        <ele>732</ele>
        <time>2026-07-14T10:42:35Z</time>
      </trkpt>
      <trkpt lat="45.75359" lon="5.82188">
        <ele>734</ele>
        <time>2026-07-14T10:42:54Z</time>
      </trkpt>
      <trkpt lat="45.7534" lon="5.82215">
        <ele>737</ele>
        <time>2026-07-14T10:43:15Z</time>
      </trkpt>
      <trkpt lat="45.75319" lon="5.82216">
        <ele>739</ele>
        <time>2026-07-14T10:43:32Z</time>
      </trkpt>
      <trkpt lat="45.75289" lon="5.82229">
        <ele>744</ele>
        <time>2026-07-14T10:43:57Z</time>
      </trkpt>
      <trkpt lat="45.75275" lon="5.82228">
        <ele>746</ele>
        <time>2026-07-14T10:44:08Z</time>
      </trkpt>
      <trkpt lat="45.75263" lon="5.82222">
        <ele>748</ele>
        <time>2026-07-14T10:44:18Z</time>
      </trkpt>
      <trkpt lat="45.75248" lon="5.8221">
        <ele>749</ele>
        <time>2026-07-14T10:44:32Z</time>
      </trkpt>
      <trkpt lat="45.7522" lon="5.82174">
        <ele>753</ele>
        <time>2026-07-14T10:45:02Z</time>
      </trkpt>
      <trkpt lat="45.75209" lon="5.82169">
        <ele>755</ele>
        <time>2026-07-14T10:45:11Z</time>
      </trkpt>
      <trkpt lat="45.75202" lon="5.8217">
        <ele>757</ele>
        <time>2026-07-14T10:45:17Z</time>
      </trkpt>
      <trkpt lat="45.75166" lon="5.82203">
        <ele>762</ele>
        <time>2026-07-14T10:45:51Z</time>
      </trkpt>
      <trkpt lat="45.75145" lon="5.82217">
        <ele>766</ele>
        <time>2026-07-14T10:46:10Z</time>
      </trkpt>
      <trkpt lat="45.75126" lon="5.82226">
        <ele>770</ele>
        <time>2026-07-14T10:46:26Z</time>
      </trkpt>
      <trkpt lat="45.7509" lon="5.82237">
        <ele>776</ele>
        <time>2026-07-14T10:46:55Z</time>
      </trkpt>
      <trkpt lat="45.7504" lon="5.82261">
        <ele>787</ele>
        <time>2026-07-14T10:47:38Z</time>
      </trkpt>
      <trkpt lat="45.75033" lon="5.82266">
        <ele>788</ele>
        <time>2026-07-14T10:47:44Z</time>
      </trkpt>
      <trkpt lat="45.75029" lon="5.82275">
        <ele>788</ele>
        <time>2026-07-14T10:47:50Z</time>
      </trkpt>
      <trkpt lat="45.75028" lon="5.82286">
        <ele>787</ele>
        <time>2026-07-14T10:47:56Z</time>
      </trkpt>
      <trkpt lat="45.75029" lon="5.82296">
        <ele>785</ele>
        <time>2026-07-14T10:48:02Z</time>
      </trkpt>
      <trkpt lat="45.75027" lon="5.82306">
        <ele>784</ele>
        <time>2026-07-14T10:48:07Z</time>
      </trkpt>
      <trkpt lat="45.7502" lon="5.82313">
        <ele>785</ele>
        <time>2026-07-14T10:48:14Z</time>
      </trkpt>
      <trkpt lat="45.75001" lon="5.82318">
        <ele>789</ele>
        <time>2026-07-14T10:48:30Z</time>
      </trkpt>
      <trkpt lat="45.74953" lon="5.82325">
        <ele>799</ele>
        <time>2026-07-14T10:49:08Z</time>
      </trkpt>
      <trkpt lat="45.74945" lon="5.82319">
        <ele>802</ele>
        <time>2026-07-14T10:49:16Z</time>
      </trkpt>
      <trkpt lat="45.74937" lon="5.82297">
        <ele>806</ele>
        <time>2026-07-14T10:49:29Z</time>
      </trkpt>
      <trkpt lat="45.7493" lon="5.82292">
        <ele>808</ele>
        <time>2026-07-14T10:49:36Z</time>
      </trkpt>
      <trkpt lat="45.74909" lon="5.82293">
        <ele>812</ele>
        <time>2026-07-14T10:49:53Z</time>
      </trkpt>
      <trkpt lat="45.74898" lon="5.82297">
        <ele>813</ele>
        <time>2026-07-14T10:50:02Z</time>
      </trkpt>
      <trkpt lat="45.74876" lon="5.82314">
        <ele>814</ele>
        <time>2026-07-14T10:50:22Z</time>
      </trkpt>
      <trkpt lat="45.74847" lon="5.82339">
        <ele>816</ele>
        <time>2026-07-14T10:50:49Z</time>
      </trkpt>
      <trkpt lat="45.74848" lon="5.8235">
        <ele>815</ele>
        <time>2026-07-14T10:50:55Z</time>
      </trkpt>
      <trkpt lat="45.74846" lon="5.82362">
        <ele>814</ele>
        <time>2026-07-14T10:51:02Z</time>
      </trkpt>
      <trkpt lat="45.74837" lon="5.82379">
        <ele>815</ele>
        <time>2026-07-14T10:51:14Z</time>
      </trkpt>
      <trkpt lat="45.74822" lon="5.82401">
        <ele>814</ele>
        <time>2026-07-14T10:51:31Z</time>
      </trkpt>
      <trkpt lat="45.74815" lon="5.82416">
        <ele>813</ele>
        <time>2026-07-14T10:51:41Z</time>
      </trkpt>
      <trkpt lat="45.74797" lon="5.82443">
        <ele>808</ele>
        <time>2026-07-14T10:52:02Z</time>
      </trkpt>
      <trkpt lat="45.74795" lon="5.82478">
        <ele>803</ele>
        <time>2026-07-14T10:52:22Z</time>
      </trkpt>
      <trkpt lat="45.74785" lon="5.82502">
        <ele>800</ele>
        <time>2026-07-14T10:52:37Z</time>
      </trkpt>
      <trkpt lat="45.74766" lon="5.82562">
        <ele>788</ele>
        <time>2026-07-14T10:53:14Z</time>
      </trkpt>
      <trkpt lat="45.7474" lon="5.82607">
        <ele>780</ele>
        <time>2026-07-14T10:53:47Z</time>
      </trkpt>
      <trkpt lat="45.74723" lon="5.82631">
        <ele>774</ele>
        <time>2026-07-14T10:54:06Z</time>
      </trkpt>
      <trkpt lat="45.74696" lon="5.82661">
        <ele>770</ele>
        <time>2026-07-14T10:54:33Z</time>
      </trkpt>
      <trkpt lat="45.74683" lon="5.8268">
        <ele>766</ele>
        <time>2026-07-14T10:54:48Z</time>
      </trkpt>
      <trkpt lat="45.7468" lon="5.82717">
        <ele>757</ele>
        <time>2026-07-14T10:55:09Z</time>
      </trkpt>
      <trkpt lat="45.74675" lon="5.82738">
        <ele>752</ele>
        <time>2026-07-14T10:55:21Z</time>
      </trkpt>
      <trkpt lat="45.74675" lon="5.82741">
        <ele>752</ele>
        <time>2026-07-14T10:55:23Z</time>
      </trkpt>
      <trkpt lat="45.74677" lon="5.8275">
        <ele>749</ele>
        <time>2026-07-14T10:55:28Z</time>
      </trkpt>
      <trkpt lat="45.74667" lon="5.82748">
        <ele>750</ele>
        <time>2026-07-14T10:55:36Z</time>
      </trkpt>
      <trkpt lat="45.74645" lon="5.82751">
        <ele>750</ele>
        <time>2026-07-14T10:55:54Z</time>
      </trkpt>
      <trkpt lat="45.74605" lon="5.82763">
        <ele>747</ele>
        <time>2026-07-14T10:56:27Z</time>
      </trkpt>
      <trkpt lat="45.74578" lon="5.82786">
        <ele>744</ele>
        <time>2026-07-14T10:56:52Z</time>
      </trkpt>
      <trkpt lat="45.74576" lon="5.828">
        <ele>742</ele>
        <time>2026-07-14T10:57:00Z</time>
      </trkpt>
      <trkpt lat="45.74553" lon="5.82827">
        <ele>737</ele>
        <time>2026-07-14T10:57:24Z</time>
      </trkpt>
      <trkpt lat="45.74543" lon="5.8285">
        <ele>734</ele>
        <time>2026-07-14T10:57:39Z</time>
      </trkpt>
      <trkpt lat="45.74537" lon="5.82877">
        <ele>731</ele>
        <time>2026-07-14T10:57:55Z</time>
      </trkpt>
      <trkpt lat="45.74519" lon="5.82912">
        <ele>728</ele>
        <time>2026-07-14T10:58:19Z</time>
      </trkpt>
      <trkpt lat="45.74512" lon="5.82911">
        <ele>729</ele>
        <time>2026-07-14T10:58:24Z</time>
      </trkpt>
      <trkpt lat="45.7451" lon="5.82903">
        <ele>729</ele>
        <time>2026-07-14T10:58:29Z</time>
      </trkpt>
      <trkpt lat="45.74505" lon="5.8289">
        <ele>730</ele>
        <time>2026-07-14T10:58:37Z</time>
      </trkpt>
      <trkpt lat="45.74498" lon="5.82882">
        <ele>730</ele>
        <time>2026-07-14T10:58:45Z</time>
      </trkpt>
      <trkpt lat="45.74479" lon="5.82872">
        <ele>730</ele>
        <time>2026-07-14T10:59:01Z</time>
      </trkpt>
      <trkpt lat="45.7446" lon="5.82872">
        <ele>730</ele>
        <time>2026-07-14T10:59:16Z</time>
      </trkpt>
      <trkpt lat="45.74417" lon="5.82891">
        <ele>732</ele>
        <time>2026-07-14T10:59:52Z</time>
      </trkpt>
      <trkpt lat="45.74347" lon="5.82907">
        <ele>738</ele>
        <time>2026-07-14T11:00:49Z</time>
      </trkpt>
      <trkpt lat="45.74337" lon="5.82914">
        <ele>739</ele>
        <time>2026-07-14T11:00:58Z</time>
      </trkpt>
      <trkpt lat="45.74311" lon="5.82946">
        <ele>739</ele>
        <time>2026-07-14T11:01:25Z</time>
      </trkpt>
      <trkpt lat="45.74283" lon="5.82971">
        <ele>741</ele>
        <time>2026-07-14T11:01:52Z</time>
      </trkpt>
      <trkpt lat="45.74263" lon="5.82971">
        <ele>742</ele>
        <time>2026-07-14T11:02:08Z</time>
      </trkpt>
      <trkpt lat="45.74232" lon="5.82964">
        <ele>746</ele>
        <time>2026-07-14T11:02:33Z</time>
      </trkpt>
      <trkpt lat="45.74191" lon="5.82948">
        <ele>753</ele>
        <time>2026-07-14T11:03:07Z</time>
      </trkpt>
      <trkpt lat="45.74155" lon="5.82939">
        <ele>759</ele>
        <time>2026-07-14T11:03:36Z</time>
      </trkpt>
      <trkpt lat="45.74126" lon="5.82935">
        <ele>767</ele>
        <time>2026-07-14T11:03:59Z</time>
      </trkpt>
      <trkpt lat="45.74105" lon="5.82927">
        <ele>772</ele>
        <time>2026-07-14T11:04:17Z</time>
      </trkpt>
      <trkpt lat="45.74087" lon="5.82924">
        <ele>777</ele>
        <time>2026-07-14T11:04:31Z</time>
      </trkpt>
      <trkpt lat="45.74064" lon="5.82936">
        <ele>782</ele>
        <time>2026-07-14T11:04:51Z</time>
      </trkpt>
      <trkpt lat="45.74041" lon="5.82958">
        <ele>786</ele>
        <time>2026-07-14T11:05:13Z</time>
      </trkpt>
      <trkpt lat="45.73976" lon="5.82942">
        <ele>802</ele>
        <time>2026-07-14T11:06:06Z</time>
      </trkpt>
      <trkpt lat="45.73932" lon="5.82983">
        <ele>803</ele>
        <time>2026-07-14T11:06:48Z</time>
      </trkpt>
      <trkpt lat="45.73909" lon="5.82996">
        <ele>805</ele>
        <time>2026-07-14T11:07:08Z</time>
      </trkpt>
      <trkpt lat="45.73893" lon="5.82997">
        <ele>810</ele>
        <time>2026-07-14T11:07:20Z</time>
      </trkpt>
      <trkpt lat="45.73877" lon="5.82993">
        <ele>816</ele>
        <time>2026-07-14T11:07:33Z</time>
      </trkpt>
      <trkpt lat="45.73874" lon="5.82977">
        <ele>821</ele>
        <time>2026-07-14T11:07:43Z</time>
      </trkpt>
      <trkpt lat="45.73875" lon="5.82959">
        <ele>824</ele>
        <time>2026-07-14T11:07:53Z</time>
      </trkpt>
      <trkpt lat="45.73878" lon="5.82937">
        <ele>828</ele>
        <time>2026-07-14T11:08:05Z</time>
      </trkpt>
      <trkpt lat="45.73885" lon="5.82922">
        <ele>829</ele>
        <time>2026-07-14T11:08:15Z</time>
      </trkpt>
      <trkpt lat="45.73882" lon="5.82911">
        <ele>833</ele>
        <time>2026-07-14T11:08:22Z</time>
      </trkpt>
      <trkpt lat="45.73877" lon="5.8291">
        <ele>834</ele>
        <time>2026-07-14T11:08:26Z</time>
      </trkpt>
      <trkpt lat="45.73843" lon="5.82933">
        <ele>840</ele>
        <time>2026-07-14T11:08:56Z</time>
      </trkpt>
      <trkpt lat="45.73831" lon="5.82958">
        <ele>838</ele>
        <time>2026-07-14T11:09:13Z</time>
      </trkpt>
      <trkpt lat="45.73823" lon="5.82958">
        <ele>841</ele>
        <time>2026-07-14T11:09:20Z</time>
      </trkpt>
      <trkpt lat="45.73825" lon="5.82939">
        <ele>844</ele>
        <time>2026-07-14T11:09:30Z</time>
      </trkpt>
      <trkpt lat="45.73833" lon="5.82913">
        <ele>847</ele>
        <time>2026-07-14T11:09:46Z</time>
      </trkpt>
      <trkpt lat="45.73847" lon="5.82893">
        <ele>847</ele>
        <time>2026-07-14T11:10:02Z</time>
      </trkpt>
      <trkpt lat="45.73855" lon="5.82844">
        <ele>854</ele>
        <time>2026-07-14T11:10:30Z</time>
      </trkpt>
      <trkpt lat="45.73874" lon="5.82812">
        <ele>855</ele>
        <time>2026-07-14T11:10:54Z</time>
      </trkpt>
      <trkpt lat="45.73861" lon="5.82767">
        <ele>867</ele>
        <time>2026-07-14T11:11:21Z</time>
      </trkpt>
      <trkpt lat="45.73861" lon="5.82752">
        <ele>870</ele>
        <time>2026-07-14T11:11:29Z</time>
      </trkpt>
      <trkpt lat="45.73893" lon="5.82691">
        <ele>876</ele>
        <time>2026-07-14T11:12:12Z</time>
      </trkpt>
      <trkpt lat="45.7391" lon="5.82649">
        <ele>881</ele>
        <time>2026-07-14T11:12:39Z</time>
      </trkpt>
      <trkpt lat="45.73911" lon="5.82635">
        <ele>884</ele>
        <time>2026-07-14T11:12:47Z</time>
      </trkpt>
      <trkpt lat="45.73876" lon="5.8264">
        <ele>890</ele>
        <time>2026-07-14T11:13:15Z</time>
      </trkpt>
      <trkpt lat="45.73857" lon="5.82649">
        <ele>892</ele>
        <time>2026-07-14T11:13:31Z</time>
      </trkpt>
      <trkpt lat="45.73844" lon="5.82633">
        <ele>898</ele>
        <time>2026-07-14T11:13:45Z</time>
      </trkpt>
      <trkpt lat="45.7384" lon="5.82613">
        <ele>902</ele>
        <time>2026-07-14T11:13:56Z</time>
      </trkpt>
      <trkpt lat="45.73833" lon="5.82598">
        <ele>906</ele>
        <time>2026-07-14T11:14:06Z</time>
      </trkpt>
      <trkpt lat="45.73817" lon="5.82586">
        <ele>912</ele>
        <time>2026-07-14T11:14:21Z</time>
      </trkpt>
      <trkpt lat="45.73805" lon="5.82588">
        <ele>914</ele>
        <time>2026-07-14T11:14:31Z</time>
      </trkpt>
      <trkpt lat="45.73804" lon="5.82588">
        <ele>914</ele>
        <time>2026-07-14T11:14:31Z</time>
      </trkpt>
      <trkpt lat="45.73776" lon="5.82593">
        <ele>919</ele>
        <time>2026-07-14T11:14:54Z</time>
      </trkpt>
      <trkpt lat="45.73759" lon="5.82593">
        <ele>923</ele>
        <time>2026-07-14T11:15:08Z</time>
      </trkpt>
      <trkpt lat="45.73743" lon="5.82603">
        <ele>927</ele>
        <time>2026-07-14T11:15:22Z</time>
      </trkpt>
      <trkpt lat="45.73731" lon="5.82604">
        <ele>933</ele>
        <time>2026-07-14T11:15:31Z</time>
      </trkpt>
      <trkpt lat="45.73718" lon="5.82618">
        <ele>936</ele>
        <time>2026-07-14T11:15:44Z</time>
      </trkpt>
      <trkpt lat="45.73707" lon="5.82638">
        <ele>936</ele>
        <time>2026-07-14T11:15:58Z</time>
      </trkpt>
      <trkpt lat="45.73684" lon="5.8265">
        <ele>943</ele>
        <time>2026-07-14T11:16:18Z</time>
      </trkpt>
      <trkpt lat="45.73662" lon="5.82665">
        <ele>949</ele>
        <time>2026-07-14T11:16:38Z</time>
      </trkpt>
      <trkpt lat="45.73653" lon="5.82668">
        <ele>953</ele>
        <time>2026-07-14T11:16:45Z</time>
      </trkpt>
      <trkpt lat="45.73647" lon="5.82661">
        <ele>958</ele>
        <time>2026-07-14T11:16:51Z</time>
      </trkpt>
      <trkpt lat="45.73642" lon="5.82662">
        <ele>960</ele>
        <time>2026-07-14T11:16:55Z</time>
      </trkpt>
      <trkpt lat="45.73636" lon="5.82667">
        <ele>962</ele>
        <time>2026-07-14T11:17:01Z</time>
      </trkpt>
      <trkpt lat="45.7363" lon="5.82687">
        <ele>961</ele>
        <time>2026-07-14T11:17:13Z</time>
      </trkpt>
      <trkpt lat="45.73613" lon="5.8271">
        <ele>965</ele>
        <time>2026-07-14T11:17:32Z</time>
      </trkpt>
      <trkpt lat="45.73609" lon="5.82708">
        <ele>968</ele>
        <time>2026-07-14T11:17:35Z</time>
      </trkpt>
      <trkpt lat="45.73605" lon="5.82696">
        <ele>972</ele>
        <time>2026-07-14T11:17:42Z</time>
      </trkpt>
      <trkpt lat="45.736" lon="5.82697">
        <ele>974</ele>
        <time>2026-07-14T11:17:47Z</time>
      </trkpt>
      <trkpt lat="45.73596" lon="5.82708">
        <ele>974</ele>
        <time>2026-07-14T11:17:53Z</time>
      </trkpt>
      <trkpt lat="45.73588" lon="5.8271">
        <ele>978</ele>
        <time>2026-07-14T11:18:00Z</time>
      </trkpt>
      <trkpt lat="45.73579" lon="5.82708">
        <ele>983</ele>
        <time>2026-07-14T11:18:07Z</time>
      </trkpt>
      <trkpt lat="45.73559" lon="5.82689">
        <ele>994</ele>
        <time>2026-07-14T11:18:26Z</time>
      </trkpt>
      <trkpt lat="45.73554" lon="5.82679">
        <ele>997</ele>
        <time>2026-07-14T11:18:33Z</time>
      </trkpt>
      <trkpt lat="45.73543" lon="5.82676">
        <ele>1002</ele>
        <time>2026-07-14T11:18:42Z</time>
      </trkpt>
      <trkpt lat="45.73528" lon="5.82679">
        <ele>1007</ele>
        <time>2026-07-14T11:18:54Z</time>
      </trkpt>
      <trkpt lat="45.73507" lon="5.82679">
        <ele>1014</ele>
        <time>2026-07-14T11:19:11Z</time>
      </trkpt>
      <trkpt lat="45.73492" lon="5.82683">
        <ele>1018</ele>
        <time>2026-07-14T11:19:23Z</time>
      </trkpt>
      <trkpt lat="45.7346" lon="5.82669">
        <ele>1030</ele>
        <time>2026-07-14T11:19:50Z</time>
      </trkpt>
      <trkpt lat="45.73441" lon="5.82672">
        <ele>1034</ele>
        <time>2026-07-14T11:20:06Z</time>
      </trkpt>
      <trkpt lat="45.73432" lon="5.82656">
        <ele>1040</ele>
        <time>2026-07-14T11:20:17Z</time>
      </trkpt>
      <trkpt lat="45.73427" lon="5.82635">
        <ele>1044</ele>
        <time>2026-07-14T11:20:29Z</time>
      </trkpt>
      <trkpt lat="45.73416" lon="5.8262">
        <ele>1050</ele>
        <time>2026-07-14T11:20:42Z</time>
      </trkpt>
      <trkpt lat="45.73402" lon="5.82607">
        <ele>1056</ele>
        <time>2026-07-14T11:20:55Z</time>
      </trkpt>
      <trkpt lat="45.73383" lon="5.82604">
        <ele>1061</ele>
        <time>2026-07-14T11:21:10Z</time>
      </trkpt>
      <trkpt lat="45.73364" lon="5.82605">
        <ele>1066</ele>
        <time>2026-07-14T11:21:25Z</time>
      </trkpt>
      <trkpt lat="45.73332" lon="5.82602">
        <ele>1075</ele>
        <time>2026-07-14T11:21:51Z</time>
      </trkpt>
      <trkpt lat="45.73211" lon="5.82612">
        <ele>1106</ele>
        <time>2026-07-14T11:23:28Z</time>
      </trkpt>
      <trkpt lat="45.7316" lon="5.82622">
        <ele>1116</ele>
        <time>2026-07-14T11:24:09Z</time>
      </trkpt>
      <trkpt lat="45.73139" lon="5.82609">
        <ele>1117</ele>
        <time>2026-07-14T11:24:28Z</time>
      </trkpt>
      <trkpt lat="45.73149" lon="5.82588">
        <ele>1120</ele>
        <time>2026-07-14T11:24:42Z</time>
      </trkpt>
      <trkpt lat="45.73155" lon="5.82567">
        <ele>1124</ele>
        <time>2026-07-14T11:24:55Z</time>
      </trkpt>
      <trkpt lat="45.7315" lon="5.82515">
        <ele>1131</ele>
        <time>2026-07-14T11:25:24Z</time>
      </trkpt>
      <trkpt lat="45.73152" lon="5.82475">
        <ele>1136</ele>
        <time>2026-07-14T11:25:46Z</time>
      </trkpt>
      <trkpt lat="45.73145" lon="5.82438">
        <ele>1137</ele>
        <time>2026-07-14T11:26:08Z</time>
      </trkpt>
      <trkpt lat="45.73146" lon="5.82413">
        <ele>1139</ele>
        <time>2026-07-14T11:26:22Z</time>
      </trkpt>
      <trkpt lat="45.73148" lon="5.82412">
        <ele>1140</ele>
        <time>2026-07-14T11:26:23Z</time>
      </trkpt>
      <trkpt lat="45.73158" lon="5.82408">
        <ele>1144</ele>
        <time>2026-07-14T11:26:32Z</time>
      </trkpt>
      <trkpt lat="45.73171" lon="5.82399">
        <ele>1146</ele>
        <time>2026-07-14T11:26:43Z</time>
      </trkpt>
      <trkpt lat="45.73179" lon="5.8238">
        <ele>1145</ele>
        <time>2026-07-14T11:26:56Z</time>
      </trkpt>
      <trkpt lat="45.73182" lon="5.82376">
        <ele>1144</ele>
        <time>2026-07-14T11:26:59Z</time>
      </trkpt>
      <trkpt lat="45.73179" lon="5.8238">
        <ele>1145</ele>
        <time>2026-07-14T11:27:02Z</time>
      </trkpt>
      <trkpt lat="45.73171" lon="5.82399">
        <ele>1146</ele>
        <time>2026-07-14T11:27:15Z</time>
      </trkpt>
      <trkpt lat="45.73158" lon="5.82408">
        <ele>1144</ele>
        <time>2026-07-14T11:27:26Z</time>
      </trkpt>
      <trkpt lat="45.73146" lon="5.82413">
        <ele>1139</ele>
        <time>2026-07-14T11:27:36Z</time>
      </trkpt>
      <trkpt lat="45.73153" lon="5.82348">
        <ele>1140</ele>
        <time>2026-07-14T11:28:13Z</time>
      </trkpt>
      <trkpt lat="45.73153" lon="5.823">
        <ele>1128</ele>
        <time>2026-07-14T11:28:40Z</time>
      </trkpt>
      <trkpt lat="45.73147" lon="5.82247">
        <ele>1106</ele>
        <time>2026-07-14T11:29:10Z</time>
      </trkpt>
      <trkpt lat="45.73143" lon="5.82225">
        <ele>1094</ele>
        <time>2026-07-14T11:29:23Z</time>
      </trkpt>
      <trkpt lat="45.73144" lon="5.82212">
        <ele>1089</ele>
        <time>2026-07-14T11:29:30Z</time>
      </trkpt>
      <trkpt lat="45.7316" lon="5.8219">
        <ele>1089</ele>
        <time>2026-07-14T11:29:48Z</time>
      </trkpt>
      <trkpt lat="45.73183" lon="5.82166">
        <ele>1084</ele>
        <time>2026-07-14T11:30:10Z</time>
      </trkpt>
      <trkpt lat="45.73202" lon="5.82141">
        <ele>1075</ele>
        <time>2026-07-14T11:30:31Z</time>
      </trkpt>
      <trkpt lat="45.7321" lon="5.82116">
        <ele>1065</ele>
        <time>2026-07-14T11:30:46Z</time>
      </trkpt>
      <trkpt lat="45.73219" lon="5.82113">
        <ele>1066</ele>
        <time>2026-07-14T11:30:54Z</time>
      </trkpt>
      <trkpt lat="45.7324" lon="5.82071">
        <ele>1054</ele>
        <time>2026-07-14T11:31:23Z</time>
      </trkpt>
      <trkpt lat="45.73267" lon="5.82042">
        <ele>1045</ele>
        <time>2026-07-14T11:31:50Z</time>
      </trkpt>
      <trkpt lat="45.73276" lon="5.82016">
        <ele>1035</ele>
        <time>2026-07-14T11:32:06Z</time>
      </trkpt>
      <trkpt lat="45.73279" lon="5.81997">
        <ele>1027</ele>
        <time>2026-07-14T11:32:17Z</time>
      </trkpt>
      <trkpt lat="45.73269" lon="5.81977">
        <ele>1014</ele>
        <time>2026-07-14T11:32:31Z</time>
      </trkpt>
      <trkpt lat="45.73261" lon="5.8194">
        <ele>992</ele>
        <time>2026-07-14T11:32:52Z</time>
      </trkpt>
      <trkpt lat="45.73195" lon="5.81934">
        <ele>968</ele>
        <time>2026-07-14T11:33:45Z</time>
      </trkpt>
      <trkpt lat="45.73174" lon="5.81945">
        <ele>967</ele>
        <time>2026-07-14T11:34:03Z</time>
      </trkpt>
      <trkpt lat="45.73144" lon="5.81947">
        <ele>955</ele>
        <time>2026-07-14T11:34:27Z</time>
      </trkpt>
      <trkpt lat="45.73134" lon="5.81938">
        <ele>945</ele>
        <time>2026-07-14T11:34:37Z</time>
      </trkpt>
      <trkpt lat="45.73138" lon="5.81915">
        <ele>936</ele>
        <time>2026-07-14T11:34:50Z</time>
      </trkpt>
      <trkpt lat="45.73145" lon="5.81895">
        <ele>931</ele>
        <time>2026-07-14T11:35:02Z</time>
      </trkpt>
      <trkpt lat="45.73147" lon="5.81855">
        <ele>916</ele>
        <time>2026-07-14T11:35:25Z</time>
      </trkpt>
      <trkpt lat="45.73133" lon="5.81815">
        <ele>898</ele>
        <time>2026-07-14T11:35:50Z</time>
      </trkpt>
      <trkpt lat="45.73112" lon="5.8179">
        <ele>885</ele>
        <time>2026-07-14T11:36:12Z</time>
      </trkpt>
      <trkpt lat="45.73152" lon="5.81733">
        <ele>880</ele>
        <time>2026-07-14T11:36:57Z</time>
      </trkpt>
      <trkpt lat="45.73171" lon="5.81718">
        <ele>879</ele>
        <time>2026-07-14T11:37:14Z</time>
      </trkpt>
      <trkpt lat="45.73173" lon="5.81715">
        <ele>878</ele>
        <time>2026-07-14T11:37:16Z</time>
      </trkpt>
      <trkpt lat="45.73197" lon="5.81674">
        <ele>866</ele>
        <time>2026-07-14T11:37:46Z</time>
      </trkpt>
      <trkpt lat="45.73229" lon="5.81696">
        <ele>872</ele>
        <time>2026-07-14T11:38:15Z</time>
      </trkpt>
      <trkpt lat="45.73328" lon="5.81627">
        <ele>847</ele>
        <time>2026-07-14T11:39:43Z</time>
      </trkpt>
      <trkpt lat="45.7334" lon="5.81608">
        <ele>841</ele>
        <time>2026-07-14T11:39:57Z</time>
      </trkpt>
      <trkpt lat="45.73374" lon="5.81596">
        <ele>840</ele>
        <time>2026-07-14T11:40:25Z</time>
      </trkpt>
      <trkpt lat="45.73393" lon="5.81541">
        <ele>822</ele>
        <time>2026-07-14T11:41:00Z</time>
      </trkpt>
      <trkpt lat="45.73467" lon="5.815">
        <ele>821</ele>
        <time>2026-07-14T11:42:03Z</time>
      </trkpt>
      <trkpt lat="45.73463" lon="5.81465">
        <ele>807</ele>
        <time>2026-07-14T11:42:23Z</time>
      </trkpt>
      <trkpt lat="45.73483" lon="5.8141">
        <ele>792</ele>
        <time>2026-07-14T11:42:58Z</time>
      </trkpt>
      <trkpt lat="45.73526" lon="5.81367">
        <ele>788</ele>
        <time>2026-07-14T11:43:40Z</time>
      </trkpt>
      <trkpt lat="45.73543" lon="5.81355">
        <ele>787</ele>
        <time>2026-07-14T11:43:55Z</time>
      </trkpt>
      <trkpt lat="45.73584" lon="5.81342">
        <ele>790</ele>
        <time>2026-07-14T11:44:28Z</time>
      </trkpt>
      <trkpt lat="45.73587" lon="5.81335">
        <ele>787</ele>
        <time>2026-07-14T11:44:33Z</time>
      </trkpt>
      <trkpt lat="45.73585" lon="5.81329">
        <ele>784</ele>
        <time>2026-07-14T11:44:37Z</time>
      </trkpt>
      <trkpt lat="45.73582" lon="5.81326">
        <ele>783</ele>
        <time>2026-07-14T11:44:40Z</time>
      </trkpt>
      <trkpt lat="45.73531" lon="5.8133">
        <ele>773</ele>
        <time>2026-07-14T11:45:21Z</time>
      </trkpt>
      <trkpt lat="45.7351" lon="5.81334">
        <ele>770</ele>
        <time>2026-07-14T11:45:38Z</time>
      </trkpt>
      <trkpt lat="45.73471" lon="5.8136">
        <ele>769</ele>
        <time>2026-07-14T11:46:12Z</time>
      </trkpt>
      <trkpt lat="45.73465" lon="5.81356">
        <ele>765</ele>
        <time>2026-07-14T11:46:17Z</time>
      </trkpt>
      <trkpt lat="45.73466" lon="5.81347">
        <ele>762</ele>
        <time>2026-07-14T11:46:22Z</time>
      </trkpt>
      <trkpt lat="45.73469" lon="5.81339">
        <ele>760</ele>
        <time>2026-07-14T11:46:27Z</time>
      </trkpt>
      <trkpt lat="45.73502" lon="5.8131">
        <ele>759</ele>
        <time>2026-07-14T11:46:58Z</time>
      </trkpt>
      <trkpt lat="45.73533" lon="5.81287">
        <ele>756</ele>
        <time>2026-07-14T11:47:26Z</time>
      </trkpt>
      <trkpt lat="45.73548" lon="5.81272">
        <ele>753</ele>
        <time>2026-07-14T11:47:41Z</time>
      </trkpt>
      <trkpt lat="45.73581" lon="5.81233">
        <ele>744</ele>
        <time>2026-07-14T11:48:15Z</time>
      </trkpt>
      <trkpt lat="45.73594" lon="5.81227">
        <ele>740</ele>
        <time>2026-07-14T11:48:26Z</time>
      </trkpt>
      <trkpt lat="45.73607" lon="5.81228">
        <ele>739</ele>
        <time>2026-07-14T11:48:37Z</time>
      </trkpt>
      <trkpt lat="45.73674" lon="5.81224">
        <ele>728</ele>
        <time>2026-07-14T11:49:30Z</time>
      </trkpt>
      <trkpt lat="45.73711" lon="5.81218">
        <ele>722</ele>
        <time>2026-07-14T11:50:00Z</time>
      </trkpt>
      <trkpt lat="45.73781" lon="5.81184">
        <ele>701</ele>
        <time>2026-07-14T11:50:59Z</time>
      </trkpt>
      <trkpt lat="45.738" lon="5.81178">
        <ele>698</ele>
        <time>2026-07-14T11:51:15Z</time>
      </trkpt>
      <trkpt lat="45.73804" lon="5.81174">
        <ele>696</ele>
        <time>2026-07-14T11:51:19Z</time>
      </trkpt>
      <trkpt lat="45.73844" lon="5.81186">
        <ele>701</ele>
        <time>2026-07-14T11:51:52Z</time>
      </trkpt>
      <trkpt lat="45.73883" lon="5.81185">
        <ele>698</ele>
        <time>2026-07-14T11:52:23Z</time>
      </trkpt>
      <trkpt lat="45.73888" lon="5.81181">
        <ele>695</ele>
        <time>2026-07-14T11:52:27Z</time>
      </trkpt>
      <trkpt lat="45.73913" lon="5.81179">
        <ele>692</ele>
        <time>2026-07-14T11:52:47Z</time>
      </trkpt>
      <trkpt lat="45.73962" lon="5.81164">
        <ele>683</ele>
        <time>2026-07-14T11:53:27Z</time>
      </trkpt>
      <trkpt lat="45.74014" lon="5.81139">
        <ele>671</ele>
        <time>2026-07-14T11:54:11Z</time>
      </trkpt>
      <trkpt lat="45.74073" lon="5.81097">
        <ele>655</ele>
        <time>2026-07-14T11:55:04Z</time>
      </trkpt>
      <trkpt lat="45.74082" lon="5.81094">
        <ele>654</ele>
        <time>2026-07-14T11:55:12Z</time>
      </trkpt>
      <trkpt lat="45.74093" lon="5.81088">
        <ele>651</ele>
        <time>2026-07-14T11:55:21Z</time>
      </trkpt>
      <trkpt lat="45.74106" lon="5.81085">
        <ele>651</ele>
        <time>2026-07-14T11:55:32Z</time>
      </trkpt>
      <trkpt lat="45.7412" lon="5.81075">
        <ele>647</ele>
        <time>2026-07-14T11:55:44Z</time>
      </trkpt>
      <trkpt lat="45.74136" lon="5.81073">
        <ele>647</ele>
        <time>2026-07-14T11:55:57Z</time>
      </trkpt>
      <trkpt lat="45.74152" lon="5.81061">
        <ele>641</ele>
        <time>2026-07-14T11:56:11Z</time>
      </trkpt>
      <trkpt lat="45.74164" lon="5.81061">
        <ele>642</ele>
        <time>2026-07-14T11:56:21Z</time>
      </trkpt>
      <trkpt lat="45.74202" lon="5.8104">
        <ele>633</ele>
        <time>2026-07-14T11:56:54Z</time>
      </trkpt>
      <trkpt lat="45.74231" lon="5.81018">
        <ele>622</ele>
        <time>2026-07-14T11:57:20Z</time>
      </trkpt>
      <trkpt lat="45.74245" lon="5.81015">
        <ele>622</ele>
        <time>2026-07-14T11:57:31Z</time>
      </trkpt>
      <trkpt lat="45.74256" lon="5.81004">
        <ele>616</ele>
        <time>2026-07-14T11:57:42Z</time>
      </trkpt>
      <trkpt lat="45.7426" lon="5.81004">
        <ele>616</ele>
        <time>2026-07-14T11:57:45Z</time>
      </trkpt>
      <trkpt lat="45.74271" lon="5.80995">
        <ele>611</ele>
        <time>2026-07-14T11:57:55Z</time>
      </trkpt>
      <trkpt lat="45.74282" lon="5.80981">
        <ele>605</ele>
        <time>2026-07-14T11:58:07Z</time>
      </trkpt>
      <trkpt lat="45.74298" lon="5.80981">
        <ele>605</ele>
        <time>2026-07-14T11:58:20Z</time>
      </trkpt>
      <trkpt lat="45.74344" lon="5.80967">
        <ele>598</ele>
        <time>2026-07-14T11:58:58Z</time>
      </trkpt>
      <trkpt lat="45.74362" lon="5.80969">
        <ele>597</ele>
        <time>2026-07-14T11:59:12Z</time>
      </trkpt>
      <trkpt lat="45.74394" lon="5.8096">
        <ele>591</ele>
        <time>2026-07-14T11:59:38Z</time>
      </trkpt>
      <trkpt lat="45.7441" lon="5.80966">
        <ele>591</ele>
        <time>2026-07-14T11:59:51Z</time>
      </trkpt>
      <trkpt lat="45.74429" lon="5.80967">
        <ele>589</ele>
        <time>2026-07-14T12:00:07Z</time>
      </trkpt>
      <trkpt lat="45.74439" lon="5.80963">
        <ele>587</ele>
        <time>2026-07-14T12:00:15Z</time>
      </trkpt>
      <trkpt lat="45.7444" lon="5.80959">
        <ele>586</ele>
        <time>2026-07-14T12:00:17Z</time>
      </trkpt>
      <trkpt lat="45.74452" lon="5.80958">
        <ele>585</ele>
        <time>2026-07-14T12:00:27Z</time>
      </trkpt>
      <trkpt lat="45.74478" lon="5.80937">
        <ele>576</ele>
        <time>2026-07-14T12:00:51Z</time>
      </trkpt>
      <trkpt lat="45.74486" lon="5.80925">
        <ele>571</ele>
        <time>2026-07-14T12:01:00Z</time>
      </trkpt>
      <trkpt lat="45.74506" lon="5.80882">
        <ele>560</ele>
        <time>2026-07-14T12:01:29Z</time>
      </trkpt>
      <trkpt lat="45.7452" lon="5.80875">
        <ele>558</ele>
        <time>2026-07-14T12:01:41Z</time>
      </trkpt>
      <trkpt lat="45.7455" lon="5.80879">
        <ele>559</ele>
        <time>2026-07-14T12:02:05Z</time>
      </trkpt>
      <trkpt lat="45.74564" lon="5.80872">
        <ele>557</ele>
        <time>2026-07-14T12:02:17Z</time>
      </trkpt>
      <trkpt lat="45.74567" lon="5.80863">
        <ele>555</ele>
        <time>2026-07-14T12:02:22Z</time>
      </trkpt>
      <trkpt lat="45.74564" lon="5.80853">
        <ele>553</ele>
        <time>2026-07-14T12:02:28Z</time>
      </trkpt>
      <trkpt lat="45.74544" lon="5.80823">
        <ele>548</ele>
        <time>2026-07-14T12:02:52Z</time>
      </trkpt>
      <trkpt lat="45.74545" lon="5.80816">
        <ele>547</ele>
        <time>2026-07-14T12:02:56Z</time>
      </trkpt>
      <trkpt lat="45.74561" lon="5.80805">
        <ele>546</ele>
        <time>2026-07-14T12:03:10Z</time>
      </trkpt>
      <trkpt lat="45.74566" lon="5.80798">
        <ele>545</ele>
        <time>2026-07-14T12:03:15Z</time>
      </trkpt>
      <trkpt lat="45.74525" lon="5.80723">
        <ele>537</ele>
        <time>2026-07-14T12:04:09Z</time>
      </trkpt>
      <trkpt lat="45.7452" lon="5.80701">
        <ele>535</ele>
        <time>2026-07-14T12:04:22Z</time>
      </trkpt>
      <trkpt lat="45.74505" lon="5.80675">
        <ele>533</ele>
        <time>2026-07-14T12:04:40Z</time>
      </trkpt>
      <trkpt lat="45.74512" lon="5.80675">
        <ele>533</ele>
        <time>2026-07-14T12:04:46Z</time>
      </trkpt>
      <trkpt lat="45.74633" lon="5.80667">
        <ele>529</ele>
        <time>2026-07-14T12:06:23Z</time>
      </trkpt>
      <trkpt lat="45.74699" lon="5.807">
        <ele>529</ele>
        <time>2026-07-14T12:07:19Z</time>
      </trkpt>
      <trkpt lat="45.74755" lon="5.80721">
        <ele>525</ele>
        <time>2026-07-14T12:08:05Z</time>
      </trkpt>
      <trkpt lat="45.74785" lon="5.80735">
        <ele>520</ele>
        <time>2026-07-14T12:08:31Z</time>
      </trkpt>
      <trkpt lat="45.74814" lon="5.80735">
        <ele>513</ele>
        <time>2026-07-14T12:08:54Z</time>
      </trkpt>
      <trkpt lat="45.74844" lon="5.80754">
        <ele>509</ele>
        <time>2026-07-14T12:09:20Z</time>
      </trkpt>
      <trkpt lat="45.74893" lon="5.8076">
        <ele>500</ele>
        <time>2026-07-14T12:09:59Z</time>
      </trkpt>
      <trkpt lat="45.74888" lon="5.80691">
        <ele>494</ele>
        <time>2026-07-14T12:10:38Z</time>
      </trkpt>
      <trkpt lat="45.74911" lon="5.80627">
        <ele>486</ele>
        <time>2026-07-14T12:11:18Z</time>
      </trkpt>
      <trkpt lat="45.74932" lon="5.80633">
        <ele>483</ele>
        <time>2026-07-14T12:11:36Z</time>
      </trkpt>
      <trkpt lat="45.74934" lon="5.80637">
        <ele>483</ele>
        <time>2026-07-14T12:11:38Z</time>
      </trkpt>
      <trkpt lat="45.74934" lon="5.80641">
        <ele>483</ele>
        <time>2026-07-14T12:11:41Z</time>
      </trkpt>
      <trkpt lat="45.74934" lon="5.80637">
        <ele>483</ele>
        <time>2026-07-14T12:11:43Z</time>
      </trkpt>
      <trkpt lat="45.74936" lon="5.80631">
        <ele>483</ele>
        <time>2026-07-14T12:11:47Z</time>
      </trkpt>
      <trkpt lat="45.74937" lon="5.80621">
        <ele>482</ele>
        <time>2026-07-14T12:11:52Z</time>
      </trkpt>
      <trkpt lat="45.74937" lon="5.8057">
        <ele>481</ele>
        <time>2026-07-14T12:12:21Z</time>
      </trkpt>
      <trkpt lat="45.7494" lon="5.80561">
        <ele>481</ele>
        <time>2026-07-14T12:12:26Z</time>
      </trkpt>
      <trkpt lat="45.74953" lon="5.80546">
        <ele>480</ele>
        <time>2026-07-14T12:12:40Z</time>
      </trkpt>
      <trkpt lat="45.7496" lon="5.80532">
        <ele>480</ele>
        <time>2026-07-14T12:12:49Z</time>
      </trkpt>
      <trkpt lat="45.74985" lon="5.80629">
        <ele>478</ele>
        <time>2026-07-14T12:13:47Z</time>
      </trkpt>
      <trkpt lat="45.74996" lon="5.80641">
        <ele>477</ele>
        <time>2026-07-14T12:13:58Z</time>
      </trkpt>
      <trkpt lat="45.75034" lon="5.80663">
        <ele>474</ele>
        <time>2026-07-14T12:14:31Z</time>
      </trkpt>
      <trkpt lat="45.75073" lon="5.80651">
        <ele>469</ele>
        <time>2026-07-14T12:15:03Z</time>
      </trkpt>
      <trkpt lat="45.75082" lon="5.80656">
        <ele>469</ele>
        <time>2026-07-14T12:15:11Z</time>
      </trkpt>
      <trkpt lat="45.75113" lon="5.80646">
        <ele>461</ele>
        <time>2026-07-14T12:15:36Z</time>
      </trkpt>
      <trkpt lat="45.75125" lon="5.80634">
        <ele>457</ele>
        <time>2026-07-14T12:15:48Z</time>
      </trkpt>
      <trkpt lat="45.75137" lon="5.80609">
        <ele>453</ele>
        <time>2026-07-14T12:16:05Z</time>
      </trkpt>
      <trkpt lat="45.75141" lon="5.80596">
        <ele>452</ele>
        <time>2026-07-14T12:16:13Z</time>
      </trkpt>
      <trkpt lat="45.7515" lon="5.80585">
        <ele>449</ele>
        <time>2026-07-14T12:16:22Z</time>
      </trkpt>
      <trkpt lat="45.75168" lon="5.80568">
        <ele>446</ele>
        <time>2026-07-14T12:16:39Z</time>
      </trkpt>
      <trkpt lat="45.75203" lon="5.80564">
        <ele>440</ele>
        <time>2026-07-14T12:17:07Z</time>
      </trkpt>
      <trkpt lat="45.75224" lon="5.80579">
        <ele>435</ele>
        <time>2026-07-14T12:17:26Z</time>
      </trkpt>
      <trkpt lat="45.75247" lon="5.80576">
        <ele>431</ele>
        <time>2026-07-14T12:17:45Z</time>
      </trkpt>
      <trkpt lat="45.75284" lon="5.80554">
        <ele>427</ele>
        <time>2026-07-14T12:18:17Z</time>
      </trkpt>
      <trkpt lat="45.75333" lon="5.80533">
        <ele>421</ele>
        <time>2026-07-14T12:18:58Z</time>
      </trkpt>
      <trkpt lat="45.7535" lon="5.80511">
        <ele>420</ele>
        <time>2026-07-14T12:19:16Z</time>
      </trkpt>
      <trkpt lat="45.75376" lon="5.80502">
        <ele>416</ele>
        <time>2026-07-14T12:19:37Z</time>
      </trkpt>
      <trkpt lat="45.75454" lon="5.80481">
        <ele>403</ele>
        <time>2026-07-14T12:20:41Z</time>
      </trkpt>
      <trkpt lat="45.7548" lon="5.80463">
        <ele>399</ele>
        <time>2026-07-14T12:21:04Z</time>
      </trkpt>
      <trkpt lat="45.75496" lon="5.8044">
        <ele>399</ele>
        <time>2026-07-14T12:21:22Z</time>
      </trkpt>
      <trkpt lat="45.75543" lon="5.80382">
        <ele>399</ele>
        <time>2026-07-14T12:22:12Z</time>
      </trkpt>
      <trkpt lat="45.75555" lon="5.80337">
        <ele>400</ele>
        <time>2026-07-14T12:22:39Z</time>
      </trkpt>
      <trkpt lat="45.75588" lon="5.80296">
        <ele>394</ele>
        <time>2026-07-14T12:23:14Z</time>
      </trkpt>
      <trkpt lat="45.75597" lon="5.80292">
        <ele>393</ele>
        <time>2026-07-14T12:23:21Z</time>
      </trkpt>
      <trkpt lat="45.7562" lon="5.80296">
        <ele>390</ele>
        <time>2026-07-14T12:23:40Z</time>
      </trkpt>
      <trkpt lat="45.75639" lon="5.80314">
        <ele>387</ele>
        <time>2026-07-14T12:23:58Z</time>
      </trkpt>
      <trkpt lat="45.7565" lon="5.80311">
        <ele>385</ele>
        <time>2026-07-14T12:24:07Z</time>
      </trkpt>
      <trkpt lat="45.75655" lon="5.8031">
        <ele>385</ele>
        <time>2026-07-14T12:24:11Z</time>
      </trkpt>
      <trkpt lat="45.75662" lon="5.80372">
        <ele>383</ele>
        <time>2026-07-14T12:24:46Z</time>
      </trkpt>
      <trkpt lat="45.75665" lon="5.80389">
        <ele>382</ele>
        <time>2026-07-14T12:24:56Z</time>
      </trkpt>
      <trkpt lat="45.75674" lon="5.80409">
        <ele>381</ele>
        <time>2026-07-14T12:25:09Z</time>
      </trkpt>
      <trkpt lat="45.75677" lon="5.80423">
        <ele>381</ele>
        <time>2026-07-14T12:25:18Z</time>
      </trkpt>
      <trkpt lat="45.75673" lon="5.80447">
        <ele>379</ele>
        <time>2026-07-14T12:25:31Z</time>
      </trkpt>
      <trkpt lat="45.75646" lon="5.80513">
        <ele>376</ele>
        <time>2026-07-14T12:26:14Z</time>
      </trkpt>
      <trkpt lat="45.75637" lon="5.80557">
        <ele>375</ele>
        <time>2026-07-14T12:26:40Z</time>
      </trkpt>
      <trkpt lat="45.75633" lon="5.80586">
        <ele>374</ele>
        <time>2026-07-14T12:26:56Z</time>
      </trkpt>
      <trkpt lat="45.75622" lon="5.80625">
        <ele>373</ele>
        <time>2026-07-14T12:27:20Z</time>
      </trkpt>
      <trkpt lat="45.75615" lon="5.8064">
        <ele>372</ele>
        <time>2026-07-14T12:27:30Z</time>
      </trkpt>
      <trkpt lat="45.75593" lon="5.80677">
        <ele>372</ele>
        <time>2026-07-14T12:27:57Z</time>
      </trkpt>
      <trkpt lat="45.75584" lon="5.80706">
        <ele>372</ele>
        <time>2026-07-14T12:28:15Z</time>
      </trkpt>
      <trkpt lat="45.75569" lon="5.80733">
        <ele>374</ele>
        <time>2026-07-14T12:28:34Z</time>
      </trkpt>
      <trkpt lat="45.75565" lon="5.80742">
        <ele>374</ele>
        <time>2026-07-14T12:28:40Z</time>
      </trkpt>
      <trkpt lat="45.75563" lon="5.80758">
        <ele>376</ele>
        <time>2026-07-14T12:28:49Z</time>
      </trkpt>
      <trkpt lat="45.75564" lon="5.80771">
        <ele>379</ele>
        <time>2026-07-14T12:28:56Z</time>
      </trkpt>
      <trkpt lat="45.75566" lon="5.80776">
        <ele>380</ele>
        <time>2026-07-14T12:29:00Z</time>
      </trkpt>
      <trkpt lat="45.75572" lon="5.80781">
        <ele>380</ele>
        <time>2026-07-14T12:29:05Z</time>
      </trkpt>
      <trkpt lat="45.75588" lon="5.80787">
        <ele>381</ele>
        <time>2026-07-14T12:29:18Z</time>
      </trkpt>
      <trkpt lat="45.75617" lon="5.80783">
        <ele>381</ele>
        <time>2026-07-14T12:29:42Z</time>
      </trkpt>
      <trkpt lat="45.75648" lon="5.80784">
        <ele>381</ele>
        <time>2026-07-14T12:30:06Z</time>
      </trkpt>
      <trkpt lat="45.75676" lon="5.8078">
        <ele>381</ele>
        <time>2026-07-14T12:30:29Z</time>
      </trkpt>
      <trkpt lat="45.7571" lon="5.80778">
        <ele>381</ele>
        <time>2026-07-14T12:30:56Z</time>
      </trkpt>
      <trkpt lat="45.7579" lon="5.80785">
        <ele>382</ele>
        <time>2026-07-14T12:32:00Z</time>
      </trkpt>
      <trkpt lat="45.75819" lon="5.80792">
        <ele>384</ele>
        <time>2026-07-14T12:32:24Z</time>
      </trkpt>
      <trkpt lat="45.75873" lon="5.80798">
        <ele>379</ele>
        <time>2026-07-14T12:33:07Z</time>
      </trkpt>
      <trkpt lat="45.75909" lon="5.80813">
        <ele>376</ele>
        <time>2026-07-14T12:33:37Z</time>
      </trkpt>
      <trkpt lat="45.75949" lon="5.80825">
        <ele>374</ele>
        <time>2026-07-14T12:34:10Z</time>
      </trkpt>
      <trkpt lat="45.75963" lon="5.80835">
        <ele>374</ele>
        <time>2026-07-14T12:34:23Z</time>
      </trkpt>
      <trkpt lat="45.75972" lon="5.80846">
        <ele>376</ele>
        <time>2026-07-14T12:34:32Z</time>
      </trkpt>
      <trkpt lat="45.75976" lon="5.80861">
        <ele>378</ele>
        <time>2026-07-14T12:34:41Z</time>
      </trkpt>
      <trkpt lat="45.75983" lon="5.80906">
        <ele>385</ele>
        <time>2026-07-14T12:35:07Z</time>
      </trkpt>
      <trkpt lat="45.75987" lon="5.80917">
        <ele>386</ele>
        <time>2026-07-14T12:35:14Z</time>
      </trkpt>
      <trkpt lat="45.75995" lon="5.80922">
        <ele>385</ele>
        <time>2026-07-14T12:35:21Z</time>
      </trkpt>
      <trkpt lat="45.76001" lon="5.80922">
        <ele>384</ele>
        <time>2026-07-14T12:35:26Z</time>
      </trkpt>
      <trkpt lat="45.76041" lon="5.8089">
        <ele>383</ele>
        <time>2026-07-14T12:36:02Z</time>
      </trkpt>
      <trkpt lat="45.76052" lon="5.8089">
        <ele>384</ele>
        <time>2026-07-14T12:36:11Z</time>
      </trkpt>
      <trkpt lat="45.76018" lon="5.80962">
        <ele>392</ele>
        <time>2026-07-14T12:37:00Z</time>
      </trkpt>
      <trkpt lat="45.76013" lon="5.80983">
        <ele>395</ele>
        <time>2026-07-14T12:37:12Z</time>
      </trkpt>
      <trkpt lat="45.76017" lon="5.80989">
        <ele>397</ele>
        <time>2026-07-14T12:37:17Z</time>
      </trkpt>
      <trkpt lat="45.76018" lon="5.80991">
        <ele>397</ele>
        <time>2026-07-14T12:37:18Z</time>
      </trkpt>
      <trkpt lat="45.76024" lon="5.81019">
        <ele>402</ele>
        <time>2026-07-14T12:37:34Z</time>
      </trkpt>
      <trkpt lat="45.76029" lon="5.81028">
        <ele>404</ele>
        <time>2026-07-14T12:37:41Z</time>
      </trkpt>
      <trkpt lat="45.76053" lon="5.81053">
        <ele>405</ele>
        <time>2026-07-14T12:38:05Z</time>
      </trkpt>
      <trkpt lat="45.76127" lon="5.81099">
        <ele>402</ele>
        <time>2026-07-14T12:39:09Z</time>
      </trkpt>
      <trkpt lat="45.76154" lon="5.81112">
        <ele>401</ele>
        <time>2026-07-14T12:39:32Z</time>
      </trkpt>
      <trkpt lat="45.76189" lon="5.8114">
        <ele>398</ele>
        <time>2026-07-14T12:40:04Z</time>
      </trkpt>
      <trkpt lat="45.76206" lon="5.81167">
        <ele>396</ele>
        <time>2026-07-14T12:40:24Z</time>
      </trkpt>
      <trkpt lat="45.76224" lon="5.81187">
        <ele>397</ele>
        <time>2026-07-14T12:40:43Z</time>
      </trkpt>
      <trkpt lat="45.7625" lon="5.81209">
        <ele>395</ele>
        <time>2026-07-14T12:41:07Z</time>
      </trkpt>
      <trkpt lat="45.76263" lon="5.81233">
        <ele>395</ele>
        <time>2026-07-14T12:41:24Z</time>
      </trkpt>
      <trkpt lat="45.76279" lon="5.81247">
        <ele>395</ele>
        <time>2026-07-14T12:41:39Z</time>
      </trkpt>
      <trkpt lat="45.76311" lon="5.81266">
        <ele>396</ele>
        <time>2026-07-14T12:42:06Z</time>
      </trkpt>
      <trkpt lat="45.76323" lon="5.81267">
        <ele>396</ele>
        <time>2026-07-14T12:42:16Z</time>
      </trkpt>
      <trkpt lat="45.76331" lon="5.81272">
        <ele>396</ele>
        <time>2026-07-14T12:42:23Z</time>
      </trkpt>
      <trkpt lat="45.76351" lon="5.813">
        <ele>397</ele>
        <time>2026-07-14T12:42:45Z</time>
      </trkpt>
      <trkpt lat="45.76364" lon="5.81311">
        <ele>396</ele>
        <time>2026-07-14T12:42:58Z</time>
      </trkpt>
      <trkpt lat="45.7638" lon="5.81318">
        <ele>395</ele>
        <time>2026-07-14T12:43:11Z</time>
      </trkpt>
      <trkpt lat="45.7639" lon="5.81327">
        <ele>394</ele>
        <time>2026-07-14T12:43:20Z</time>
      </trkpt>
      <trkpt lat="45.76399" lon="5.81328">
        <ele>392</ele>
        <time>2026-07-14T12:43:28Z</time>
      </trkpt>
      <trkpt lat="45.76412" lon="5.81338">
        <ele>391</ele>
        <time>2026-07-14T12:43:39Z</time>
      </trkpt>
      <trkpt lat="45.7648" lon="5.81407">
        <ele>390</ele>
        <time>2026-07-14T12:44:46Z</time>
      </trkpt>
      <trkpt lat="45.76502" lon="5.81422">
        <ele>389</ele>
        <time>2026-07-14T12:45:06Z</time>
      </trkpt>
      <trkpt lat="45.7652" lon="5.81422">
        <ele>389</ele>
        <time>2026-07-14T12:45:20Z</time>
      </trkpt>
      <trkpt lat="45.76553" lon="5.81424">
        <ele>389</ele>
        <time>2026-07-14T12:45:46Z</time>
      </trkpt>
      <trkpt lat="45.76583" lon="5.81409">
        <ele>389</ele>
        <time>2026-07-14T12:46:12Z</time>
      </trkpt>
      <trkpt lat="45.76633" lon="5.8137">
        <ele>389</ele>
        <time>2026-07-14T12:46:57Z</time>
      </trkpt>
      <trkpt lat="45.76683" lon="5.81366">
        <ele>391</ele>
        <time>2026-07-14T12:47:38Z</time>
      </trkpt>
      <trkpt lat="45.76715" lon="5.81376">
        <ele>392</ele>
        <time>2026-07-14T12:48:04Z</time>
      </trkpt>
      <trkpt lat="45.76732" lon="5.81387">
        <ele>392</ele>
        <time>2026-07-14T12:48:19Z</time>
      </trkpt>
      <trkpt lat="45.76748" lon="5.81388">
        <ele>393</ele>
        <time>2026-07-14T12:48:32Z</time>
      </trkpt>
      <trkpt lat="45.76784" lon="5.81387">
        <ele>394</ele>
        <time>2026-07-14T12:49:00Z</time>
      </trkpt>
      <trkpt lat="45.76799" lon="5.81395">
        <ele>395</ele>
        <time>2026-07-14T12:49:13Z</time>
      </trkpt>
      <trkpt lat="45.76809" lon="5.81377">
        <ele>394</ele>
        <time>2026-07-14T12:49:26Z</time>
      </trkpt>
      <trkpt lat="45.76832" lon="5.81385">
        <ele>396</ele>
        <time>2026-07-14T12:49:45Z</time>
      </trkpt>
      <trkpt lat="45.7685" lon="5.81418">
        <ele>399</ele>
        <time>2026-07-14T12:50:08Z</time>
      </trkpt>
      <trkpt lat="45.76876" lon="5.81431">
        <ele>399</ele>
        <time>2026-07-14T12:50:30Z</time>
      </trkpt>
      <trkpt lat="45.76907" lon="5.81452">
        <ele>401</ele>
        <time>2026-07-14T12:50:58Z</time>
      </trkpt>
      <trkpt lat="45.7695" lon="5.81475">
        <ele>401</ele>
        <time>2026-07-14T12:51:35Z</time>
      </trkpt>
      <trkpt lat="45.77046" lon="5.81509">
        <ele>400</ele>
        <time>2026-07-14T12:52:54Z</time>
      </trkpt>
      <trkpt lat="45.77058" lon="5.8151">
        <ele>399</ele>
        <time>2026-07-14T12:53:03Z</time>
      </trkpt>
      <trkpt lat="45.77105" lon="5.81565">
        <ele>404</ele>
        <time>2026-07-14T12:53:52Z</time>
      </trkpt>
      <trkpt lat="45.77159" lon="5.81567">
        <ele>399</ele>
        <time>2026-07-14T12:54:35Z</time>
      </trkpt>
      <trkpt lat="45.77181" lon="5.81564">
        <ele>398</ele>
        <time>2026-07-14T12:54:53Z</time>
      </trkpt>
      <trkpt lat="45.77253" lon="5.81564">
        <ele>397</ele>
        <time>2026-07-14T12:55:51Z</time>
      </trkpt>
      <trkpt lat="45.77292" lon="5.81553">
        <ele>395</ele>
        <time>2026-07-14T12:56:22Z</time>
      </trkpt>
      <trkpt lat="45.77315" lon="5.81552">
        <ele>394</ele>
        <time>2026-07-14T12:56:41Z</time>
      </trkpt>
      <trkpt lat="45.77334" lon="5.81554">
        <ele>394</ele>
        <time>2026-07-14T12:56:56Z</time>
      </trkpt>
      <trkpt lat="45.77384" lon="5.81564">
        <ele>394</ele>
        <time>2026-07-14T12:57:37Z</time>
      </trkpt>
      <trkpt lat="45.77391" lon="5.81564">
        <ele>394</ele>
        <time>2026-07-14T12:57:42Z</time>
      </trkpt>
      <trkpt lat="45.77401" lon="5.81557">
        <ele>393</ele>
        <time>2026-07-14T12:57:51Z</time>
      </trkpt>
      <trkpt lat="45.77406" lon="5.8155">
        <ele>392</ele>
        <time>2026-07-14T12:57:57Z</time>
      </trkpt>
      <trkpt lat="45.77422" lon="5.81501">
        <ele>389</ele>
        <time>2026-07-14T12:58:27Z</time>
      </trkpt>
      <trkpt lat="45.77432" lon="5.8149">
        <ele>388</ele>
        <time>2026-07-14T12:58:37Z</time>
      </trkpt>
      <trkpt lat="45.77445" lon="5.81507">
        <ele>389</ele>
        <time>2026-07-14T12:58:51Z</time>
      </trkpt>
      <trkpt lat="45.77523" lon="5.81561">
        <ele>391</ele>
        <time>2026-07-14T13:00:00Z</time>
      </trkpt>
      <trkpt lat="45.77529" lon="5.81552">
        <ele>390</ele>
        <time>2026-07-14T13:00:07Z</time>
      </trkpt>
      <trkpt lat="45.77561" lon="5.81515">
        <ele>387</ele>
        <time>2026-07-14T13:00:40Z</time>
      </trkpt>
      <trkpt lat="45.77604" lon="5.81456">
        <ele>387</ele>
        <time>2026-07-14T13:01:28Z</time>
      </trkpt>
      <trkpt lat="45.77698" lon="5.81478">
        <ele>386</ele>
        <time>2026-07-14T13:02:44Z</time>
      </trkpt>
    </trkseg>
  </trk>
</gpx>